createdAt,value
2022-08-03T00:02:01.798Z,3.40
2022-08-03T00:04:51.161Z,3.87
2022-08-03T00:07:38.693Z,3.43
2022-08-03T00:10:26.519Z,3.93
2022-08-03T00:13:14.977Z,3.93
2022-08-03T00:16:02.011Z,4.00
2022-08-03T00:18:48.986Z,3.93
2022-08-03T00:21:35.996Z,3.53
2022-08-03T00:24:23.102Z,2.33
2022-08-03T00:27:10.035Z,3.60
2022-08-03T00:30:00.258Z,2.53
2022-08-03T00:32:47.610Z,3.47
2022-08-03T00:35:50.086Z,2.90
2022-08-03T00:38:37.285Z,3.30
2022-08-03T00:45:09.104Z,3.27
2022-08-03T00:47:56.452Z,3.97
2022-08-03T00:50:44.138Z,3.60
2022-08-03T00:53:31.521Z,3.17
2022-08-03T00:56:19.068Z,2.93
2022-08-03T00:59:06.168Z,2.90
2022-08-03T01:01:54.970Z,3.20
2022-08-03T01:04:42.042Z,3.43
2022-08-03T01:07:43.946Z,3.20
2022-08-03T01:10:39.431Z,3.47
2022-08-03T01:14:01.047Z,3.30
2022-08-03T01:16:42.261Z,3.23
2022-08-03T01:19:46.562Z,3.57
2022-08-03T01:22:52.169Z,3.50
2022-08-03T01:25:58.435Z,3.40
2022-08-03T01:29:04.497Z,3.20
2022-08-03T01:32:59.152Z,3.17
2022-08-03T01:35:10.711Z,3.40
2022-08-03T01:38:01.860Z,3.33
2022-08-03T01:40:51.735Z,2.90
2022-08-03T01:44:27.263Z,3.10
2022-08-03T01:46:51.358Z,3.90
2022-08-03T01:49:41.700Z,3.57
2022-08-03T01:52:29.931Z,3.67
2022-08-03T01:55:20.193Z,3.77
2022-08-03T01:58:08.696Z,3.50
2022-08-03T02:00:59.411Z,3.60
2022-08-03T02:03:59.599Z,3.63
2022-08-03T02:07:02.557Z,3.93
2022-08-03T02:11:04.353Z,3.60
2022-08-03T02:13:52.640Z,4.07
2022-08-03T02:16:40.112Z,4.03
2022-08-03T02:19:32.434Z,3.40
2022-08-03T02:22:25.919Z,3.40
2022-08-03T02:25:15.324Z,3.80
2022-08-03T02:28:09.842Z,3.30
2022-08-03T02:30:57.694Z,3.43
2022-08-03T02:33:52.397Z,3.33
2022-08-03T02:36:41.563Z,3.23
2022-08-03T02:39:34.099Z,2.97
2022-08-03T02:42:24.101Z,3.63
2022-08-03T02:45:13.866Z,3.23
2022-08-03T02:48:03.955Z,3.00
2022-08-03T02:50:54.651Z,3.30
2022-08-03T02:53:42.440Z,3.47
2022-08-03T02:56:31.860Z,3.03
2022-08-03T02:59:20.044Z,3.20
2022-08-03T03:02:07.609Z,3.40
2022-08-03T03:05:55.485Z,3.50
2022-08-03T03:08:02.910Z,2.90
2022-08-03T03:10:55.368Z,3.73
2022-08-03T03:13:45.988Z,3.47
2022-08-03T03:16:33.199Z,3.30
2022-08-03T03:19:21.271Z,3.30
2022-08-03T03:22:09.351Z,3.37
2022-08-03T03:24:56.749Z,3.50
2022-08-03T03:27:48.835Z,3.80
2022-08-03T03:30:39.117Z,3.30
2022-08-03T03:33:28.394Z,3.13
2022-08-03T03:36:16.055Z,3.30
2022-08-03T03:39:15.915Z,3.23
2022-08-03T03:42:04.135Z,3.87
2022-08-03T03:44:51.283Z,3.53
2022-08-03T03:47:39.780Z,3.50
2022-08-03T03:50:27.376Z,3.53
2022-08-03T03:53:16.193Z,3.50
2022-08-03T03:56:03.243Z,4.17
2022-08-03T03:58:50.221Z,3.17
2022-08-03T04:01:37.464Z,3.50
2022-08-03T04:04:43.226Z,3.40
2022-08-03T04:08:01.901Z,3.67
2022-08-03T04:11:08.091Z,3.57
2022-08-03T04:13:57.400Z,3.67
2022-08-03T04:16:52.685Z,4.17
2022-08-03T04:19:44.647Z,3.83
2022-08-03T04:22:33.516Z,4.10
2022-08-03T04:25:21.906Z,4.00
2022-08-03T04:28:31.262Z,4.80
2022-08-03T04:31:18.160Z,4.10
2022-08-03T04:34:05.925Z,3.93
2022-08-03T04:36:59.117Z,4.50
2022-08-03T04:39:46.608Z,4.63
2022-08-03T04:42:35.313Z,5.03
2022-08-03T04:45:22.806Z,4.33
2022-08-03T04:48:10.095Z,3.30
2022-08-03T04:50:57.160Z,3.73
2022-08-03T04:53:45.588Z,4.60
2022-08-03T04:56:34.138Z,3.97
2022-08-03T04:59:21.285Z,3.80
2022-08-03T05:02:08.288Z,4.70
2022-08-03T05:04:55.210Z,4.60
2022-08-03T05:07:42.365Z,4.37
2022-08-03T05:10:30.546Z,4.47
2022-08-03T05:13:21.349Z,4.50
2022-08-03T05:16:08.617Z,4.23
2022-08-03T05:18:55.794Z,4.30
2022-08-03T05:21:52.823Z,4.13
2022-08-03T05:24:40.030Z,4.60
2022-08-03T05:27:28.445Z,4.70
2022-08-03T05:30:31.077Z,4.30
2022-08-03T05:33:20.996Z,3.77
2022-08-03T05:36:08.100Z,4.13
2022-08-03T05:38:58.478Z,3.90
2022-08-03T05:41:48.086Z,4.03
2022-08-03T05:44:38.641Z,4.53
2022-08-03T05:47:25.370Z,3.80
2022-08-03T05:50:12.901Z,4.80
2022-08-03T05:52:59.812Z,4.10
2022-08-03T05:55:47.456Z,4.30
2022-08-03T05:58:36.328Z,4.53
2022-08-03T06:01:24.472Z,4.50
2022-08-03T06:04:12.054Z,4.33
2022-08-03T06:06:59.373Z,4.00
2022-08-03T06:10:36.501Z,4.50
2022-08-03T06:12:53.791Z,5.43
2022-08-03T06:15:41.182Z,4.63
2022-08-03T06:18:29.231Z,4.53
2022-08-03T06:21:16.831Z,4.37
2022-08-03T06:24:04.067Z,5.10
2022-08-03T06:26:53.169Z,5.57
2022-08-03T06:29:40.323Z,5.77
2022-08-03T06:32:27.454Z,5.73
2022-08-03T06:35:16.272Z,5.77
2022-08-03T06:38:03.327Z,5.60
2022-08-03T06:40:50.941Z,4.13
2022-08-03T06:44:03.411Z,4.70
2022-08-03T06:46:45.682Z,4.10
2022-08-03T06:49:32.867Z,4.47
2022-08-03T06:52:37.916Z,4.23
2022-08-03T06:55:25.995Z,4.00
2022-08-03T06:58:13.206Z,3.73
2022-08-03T07:01:00.384Z,4.47
2022-08-03T07:03:52.589Z,3.63
2022-08-03T07:06:39.991Z,4.17
2022-08-03T07:09:28.133Z,3.90
2022-08-03T07:12:15.405Z,4.63
2022-08-03T07:15:03.793Z,3.77
2022-08-03T07:17:50.917Z,3.73
2022-08-03T07:20:38.134Z,3.60
2022-08-03T07:23:25.428Z,4.37
2022-08-03T07:26:14.061Z,3.80
2022-08-03T07:29:01.583Z,14.90
2022-08-03T07:31:48.948Z,5.47
2022-08-03T07:34:36.106Z,4.67
2022-08-03T07:37:23.265Z,4.70
2022-08-03T07:40:10.391Z,3.57
2022-08-03T07:42:59.277Z,4.47
2022-08-03T07:45:46.832Z,4.13
2022-08-03T07:48:33.893Z,6.70
2022-08-03T07:51:44.529Z,3.67
2022-08-03T07:54:32.036Z,3.60
2022-08-03T07:57:19.284Z,3.97
2022-08-03T08:00:13.519Z,4.20
2022-08-03T08:03:00.483Z,3.60
2022-08-03T08:05:47.950Z,3.63
2022-08-03T08:08:35.003Z,5.00
2022-08-03T08:11:22.440Z,3.73
2022-08-03T08:14:09.809Z,3.30
2022-08-03T08:16:58.146Z,3.83
2022-08-03T08:19:51.287Z,3.03
2022-08-03T08:22:40.716Z,2.97
2022-08-03T08:25:28.479Z,3.00
2022-08-03T08:28:30.387Z,2.60
2022-08-03T08:31:20.410Z,2.13
2022-08-03T08:34:08.404Z,7.77
2022-08-03T08:36:55.332Z,2.57
2022-08-03T08:39:42.477Z,3.10
2022-08-03T08:42:29.705Z,2.30
2022-08-03T08:45:18.130Z,2.13
2022-08-03T08:48:08.377Z,1.95
2022-08-03T08:50:57.961Z,1.48
2022-08-03T08:53:48.761Z,1.88
2022-08-03T08:56:36.851Z,1.50
2022-08-03T08:59:24.229Z,1.60
2022-08-03T09:02:11.272Z,2.22
2022-08-03T09:05:01.100Z,1.50
2022-08-03T09:07:52.995Z,1.88
2022-08-03T09:10:40.031Z,1.60
2022-08-03T09:13:27.184Z,2.30
2022-08-03T09:16:15.547Z,1.92
2022-08-03T09:19:14.820Z,1.77
2022-08-03T09:22:13.013Z,1.70
2022-08-03T09:28:14.343Z,2.70
2022-08-03T09:31:21.319Z,1.20
2022-08-03T09:34:15.483Z,1.95
2022-08-03T09:37:02.576Z,1.90
2022-08-03T09:39:49.869Z,1.50
2022-08-03T09:42:39.160Z,1.30
2022-08-03T09:45:45.372Z,1.70
2022-08-03T09:48:34.821Z,1.70
2022-08-03T09:52:28.824Z,1.27
2022-08-03T09:54:34.192Z,2.78
2022-08-03T09:57:25.308Z,1.20
2022-08-03T10:00:15.714Z,0.88
2022-08-03T10:03:05.983Z,1.40
2022-08-03T10:05:59.077Z,1.30
2022-08-03T10:08:46.726Z,1.65
2022-08-03T10:11:40.547Z,1.60
2022-08-03T10:14:31.728Z,1.38
2022-08-03T10:17:20.439Z,1.88
2022-08-03T10:20:08.745Z,2.10
2022-08-03T10:22:56.061Z,1.10
2022-08-03T10:25:47.604Z,3.53
2022-08-03T10:28:39.295Z,1.92
2022-08-03T10:31:35.849Z,1.52
2022-08-03T10:34:34.998Z,1.95
2022-08-03T10:37:26.059Z,1.40
2022-08-03T10:40:33.440Z,1.27
2022-08-03T10:43:27.387Z,1.40
2022-08-03T10:46:17.084Z,1.40
2022-08-03T10:49:05.024Z,1.23
2022-08-03T10:51:54.526Z,1.20
2022-08-03T10:54:56.691Z,1.15
2022-08-03T10:57:50.485Z,1.80
2022-08-03T11:00:50.766Z,3.05
2022-08-03T11:04:17.066Z,1.65
2022-08-03T11:07:29.546Z,1.40
2022-08-03T11:10:32.294Z,1.58
2022-08-03T11:13:21.234Z,0.90
2022-08-03T11:16:23.294Z,1.25
2022-08-03T11:19:12.139Z,1.20
2022-08-03T11:22:00.959Z,1.15
2022-08-03T11:25:54.156Z,1.20
2022-08-03T11:28:30.519Z,1.30
2022-08-03T11:31:57.386Z,1.55
2022-08-03T11:35:08.666Z,1.10
2022-08-03T11:38:09.927Z,1.25
2022-08-03T11:40:57.651Z,1.70
2022-08-03T11:43:47.871Z,1.20
2022-08-03T11:46:38.762Z,0.98
2022-08-03T11:49:25.811Z,1.30
2022-08-03T11:52:12.860Z,1.38
2022-08-03T11:54:59.983Z,1.80
2022-08-03T11:59:15.187Z,1.40
2022-08-03T12:01:05.739Z,1.48
2022-08-03T12:03:53.352Z,2.00
2022-08-03T12:06:55.114Z,2.20
2022-08-03T12:09:42.423Z,1.30
2022-08-03T12:12:29.468Z,1.40
2022-08-03T12:15:17.801Z,1.20
2022-08-03T12:18:13.627Z,1.48
2022-08-03T12:21:07.915Z,1.27
2022-08-03T12:24:00.115Z,1.50
2022-08-03T12:26:58.643Z,1.90
2022-08-03T12:29:58.128Z,1.50
2022-08-03T12:32:47.513Z,1.52
2022-08-03T12:35:35.061Z,1.38
2022-08-03T12:38:23.462Z,1.40
2022-08-03T12:41:13.545Z,1.83
2022-08-03T12:44:01.035Z,1.65
2022-08-03T12:46:48.299Z,1.27
2022-08-03T12:49:47.789Z,2.05
2022-08-03T12:52:45.063Z,1.55
2022-08-03T12:55:57.172Z,1.80
2022-08-03T12:58:43.469Z,1.65
2022-08-03T13:01:38.209Z,1.33
2022-08-03T13:04:42.427Z,1.70
2022-08-03T13:07:42.087Z,1.10
2022-08-03T13:10:35.161Z,1.83
2022-08-03T13:13:40.470Z,1.23
2022-08-03T13:16:27.868Z,1.88
2022-08-03T13:19:15.462Z,1.00
2022-08-03T13:22:04.758Z,1.05
2022-08-03T13:24:55.833Z,1.30
2022-08-03T13:28:04.119Z,1.27
2022-08-03T13:30:50.311Z,1.10
2022-08-03T13:33:39.061Z,1.38
2022-08-03T13:36:25.913Z,2.45
2022-08-03T13:39:16.495Z,1.42
2022-08-03T13:42:09.132Z,1.40
2022-08-03T13:44:56.336Z,1.20
2022-08-03T13:47:43.619Z,1.33
2022-08-03T13:50:31.342Z,1.50
2022-08-03T13:53:18.583Z,1.23
2022-08-03T13:56:05.984Z,1.52
2022-08-03T13:58:54.372Z,1.60
2022-08-03T14:01:54.964Z,1.58
2022-08-03T14:04:42.521Z,1.40
2022-08-03T14:07:29.593Z,1.50
2022-08-03T14:10:17.604Z,1.50
2022-08-03T14:13:04.995Z,2.05
2022-08-03T14:15:53.121Z,1.38
2022-08-03T14:18:43.183Z,1.50
2022-08-03T14:21:31.364Z,1.52
2022-08-03T14:24:18.308Z,1.42
2022-08-03T14:27:09.191Z,1.85
2022-08-03T14:29:59.747Z,1.17
2022-08-03T14:32:48.053Z,1.30
2022-08-03T14:35:54.322Z,1.52
2022-08-03T14:38:41.480Z,1.88
2022-08-03T14:41:28.904Z,1.73
2022-08-03T14:44:16.339Z,1.40
2022-08-03T14:47:03.621Z,1.88
2022-08-03T14:50:36.206Z,1.65
2022-08-03T14:52:59.154Z,1.60
2022-08-03T14:55:53.241Z,1.48
2022-08-03T14:58:40.645Z,2.65
2022-08-03T15:02:04.879Z,1.45
2022-08-03T15:04:34.775Z,1.63
2022-08-03T15:07:23.227Z,1.60
2022-08-03T15:10:10.444Z,1.50
2022-08-03T15:12:57.547Z,1.67
2022-08-03T15:15:44.697Z,1.40
2022-08-03T15:18:34.695Z,1.60
2022-08-03T15:21:46.671Z,1.80
2022-08-03T15:24:30.023Z,1.63
2022-08-03T15:27:17.121Z,1.65
2022-08-03T15:30:10.076Z,1.42
2022-08-03T15:32:57.277Z,2.28
2022-08-03T15:35:44.429Z,1.42
2022-08-03T15:38:31.315Z,1.23
2022-08-03T15:41:19.510Z,1.80
2022-08-03T15:44:09.276Z,1.67
2022-08-03T15:46:56.750Z,1.58
2022-08-03T15:49:43.797Z,1.25
2022-08-03T15:52:30.936Z,1.65
2022-08-03T15:55:18.178Z,3.67
2022-08-03T15:59:03.434Z,1.65
2022-08-03T16:01:16.467Z,1.60
2022-08-03T16:04:06.562Z,3.80
2022-08-03T16:06:53.648Z,1.95
2022-08-03T16:09:42.763Z,1.70
2022-08-03T16:12:30.111Z,1.45
2022-08-03T16:15:18.453Z,1.30
2022-08-03T16:18:05.305Z,1.27
2022-08-03T16:20:52.651Z,1.30
2022-08-03T16:23:39.900Z,1.42
2022-08-03T16:26:30.446Z,1.30
2022-08-03T16:29:23.431Z,1.70
2022-08-03T16:32:11.996Z,1.60
2022-08-03T16:34:59.590Z,1.58
2022-08-03T16:37:54.678Z,1.40
2022-08-03T16:40:44.031Z,1.40
2022-08-03T16:43:30.960Z,1.30
2022-08-03T16:46:18.026Z,2.20
2022-08-03T16:49:06.291Z,1.52
2022-08-03T16:51:53.566Z,2.10
2022-08-03T16:54:41.259Z,1.95
2022-08-03T16:57:56.079Z,1.48
2022-08-03T17:00:41.171Z,1.95
2022-08-03T17:03:29.471Z,1.38
2022-08-03T17:06:34.048Z,1.30
2022-08-03T17:09:22.080Z,1.30
2022-08-03T17:12:10.922Z,1.27
2022-08-03T17:14:58.261Z,1.33
2022-08-03T17:17:56.715Z,1.52
2022-08-03T17:20:47.948Z,1.60
2022-08-03T17:23:47.758Z,1.52
2022-08-03T17:26:44.612Z,1.30
2022-08-03T17:29:34.949Z,1.60
2022-08-03T17:32:22.307Z,1.38
2022-08-03T17:35:11.791Z,1.60
2022-08-03T17:38:03.767Z,1.40
2022-08-03T17:40:54.915Z,1.13
2022-08-03T17:44:15.917Z,1.42
2022-08-03T17:46:52.315Z,1.30
2022-08-03T17:49:40.408Z,1.40
2022-08-03T17:52:32.528Z,1.17
2022-08-03T17:55:54.863Z,1.52
2022-08-03T17:58:43.659Z,1.35
2022-08-03T18:02:04.308Z,1.52
2022-08-03T18:05:16.666Z,1.33
2022-08-03T18:08:11.166Z,1.58
2022-08-03T18:11:03.439Z,1.45
2022-08-03T18:14:15.984Z,1.40
2022-08-03T18:17:10.403Z,1.73
2022-08-03T18:20:02.552Z,1.45
2022-08-03T18:22:51.864Z,1.50
2022-08-03T18:25:50.015Z,1.70
2022-08-03T18:28:39.341Z,1.63
2022-08-03T18:32:00.219Z,1.77
2022-08-03T18:34:36.824Z,1.90
2022-08-03T18:37:28.314Z,3.72
2022-08-03T18:40:18.295Z,2.45
2022-08-03T18:43:08.120Z,2.70
2022-08-03T18:45:59.423Z,2.13
2022-08-03T18:48:56.356Z,2.45
2022-08-03T18:51:47.149Z,3.90
2022-08-03T18:54:45.636Z,3.80
2022-08-03T18:57:40.584Z,3.40
2022-08-03T19:00:42.665Z,2.80
2022-08-03T19:03:43.402Z,3.35
2022-08-03T19:06:36.265Z,2.25
2022-08-03T19:09:28.932Z,2.30
2022-08-03T19:12:28.317Z,2.55
2022-08-03T19:15:36.606Z,2.20
2022-08-03T19:18:28.573Z,2.40
2022-08-03T19:21:16.917Z,2.85
2022-08-03T19:24:09.727Z,2.67
2022-08-03T19:26:58.835Z,4.00
2022-08-03T19:29:58.184Z,3.17
2022-08-03T19:32:48.299Z,4.20
2022-08-03T19:35:52.178Z,3.07
2022-08-03T19:38:43.923Z,3.40
2022-08-03T19:41:42.306Z,3.40
2022-08-03T19:47:40.533Z,4.13
2022-08-03T19:50:33.432Z,3.73
2022-08-03T19:53:22.794Z,2.90
2022-08-03T19:56:11.990Z,3.33
2022-08-03T19:59:02.281Z,3.30
2022-08-03T20:01:50.696Z,3.00
2022-08-03T20:04:38.032Z,3.20
2022-08-03T20:07:27.253Z,3.70
2022-08-03T20:10:14.741Z,3.83
2022-08-03T20:13:03.411Z,3.80
2022-08-03T20:15:53.510Z,3.20
2022-08-03T20:18:40.796Z,3.40
2022-08-03T20:21:33.757Z,3.27
2022-08-03T20:24:28.841Z,3.47
2022-08-03T20:27:21.538Z,3.17
2022-08-03T20:30:17.704Z,3.40
2022-08-03T20:33:18.621Z,3.30
2022-08-03T20:36:06.816Z,3.23
2022-08-03T20:38:57.635Z,3.93
2022-08-03T20:41:45.435Z,3.97
2022-08-03T20:44:32.675Z,3.50
2022-08-03T20:47:23.979Z,2.87
2022-08-03T20:50:13.174Z,4.00
2022-08-03T20:53:02.765Z,3.53
2022-08-03T20:56:02.272Z,3.67
2022-08-03T20:58:50.978Z,3.50
2022-08-03T21:01:38.582Z,3.43
2022-08-03T21:04:25.923Z,4.00
2022-08-03T21:07:19.647Z,3.20
2022-08-03T21:10:11.991Z,3.23
2022-08-03T21:13:16.746Z,2.80
2022-08-03T21:16:13.870Z,2.77
2022-08-03T21:19:05.062Z,2.60
2022-08-03T21:21:52.967Z,2.60
2022-08-03T21:24:41.899Z,2.80
2022-08-03T21:27:31.572Z,2.40
2022-08-03T21:30:18.640Z,2.60
2022-08-03T21:33:06.724Z,3.53
2022-08-03T21:35:53.689Z,3.20
2022-08-03T21:38:41.235Z,2.90
2022-08-03T21:41:31.814Z,3.10
2022-08-03T21:44:28.857Z,2.57
2022-08-03T21:47:17.440Z,2.67
2022-08-03T21:50:09.671Z,2.80
2022-08-03T21:52:59.675Z,3.47
2022-08-03T21:55:55.373Z,3.10
2022-08-03T21:58:51.060Z,3.33
2022-08-03T22:01:42.355Z,3.23
2022-08-03T22:04:53.486Z,3.10
2022-08-03T22:07:37.884Z,2.70
2022-08-03T22:10:25.005Z,2.80
2022-08-03T22:13:12.423Z,2.70
2022-08-03T22:16:01.117Z,2.83
2022-08-03T22:18:47.767Z,2.47
2022-08-03T22:21:36.601Z,2.40
2022-08-03T22:24:28.178Z,2.90
2022-08-03T22:27:32.290Z,2.77
2022-08-03T22:30:20.124Z,2.80
2022-08-03T22:33:11.714Z,2.57
2022-08-03T22:36:00.752Z,3.03
2022-08-03T22:38:48.533Z,2.90
2022-08-03T22:41:35.842Z,2.63
2022-08-03T22:44:23.611Z,2.20
2022-08-03T22:47:11.180Z,2.80
2022-08-03T22:50:32.528Z,3.20
2022-08-03T22:53:08.204Z,2.70
2022-08-03T22:55:55.528Z,2.97
2022-08-03T22:58:42.852Z,2.93
2022-08-03T23:01:30.151Z,2.90
2022-08-03T23:04:17.861Z,3.73
2022-08-03T23:07:10.357Z,3.07
2022-08-03T23:09:58.360Z,3.20
2022-08-03T23:12:48.332Z,3.20
2022-08-03T23:15:35.509Z,3.37
2022-08-03T23:18:23.717Z,3.13
2022-08-03T23:21:11.253Z,2.83
2022-08-03T23:24:02.381Z,3.30
2022-08-03T23:26:49.651Z,3.07
2022-08-03T23:29:37.428Z,3.17
2022-08-03T23:32:26.036Z,3.17
2022-08-03T23:36:18.668Z,2.93
2022-08-03T23:38:37.712Z,3.13
2022-08-03T23:41:25.883Z,2.83
2022-08-03T23:44:13.771Z,3.13
2022-08-03T23:47:00.991Z,3.27
2022-08-03T23:49:48.034Z,3.30
2022-08-03T23:52:39.359Z,3.13
2022-08-03T23:55:48.213Z,3.60
2022-08-03T23:59:01.149Z,2.67
